Time;durP1;ratioP1;P1;durP2;ratioP2;P2;SDS_P1;SDS_P2;PMS_P1;PMS_P2;Temp;Humidity;BMP_temperature;BMP_pressure;BME280_temperature;BME280_humidity;BME280_pressure;Samples;Min_cycle;Max_cycle;Signal;HPM_P1;HPM_P2
2021/07/19 00:01:05;;;;;;;20.33;12.45;;;;;;;18.85;78.86;96501.13;5112810;28;20048;-71
2021/07/19 00:03:32;;;;;;;19.88;12.45;;;;;;;18.85;79.03;96512.16;5109992;28;20051;-72
2021/07/19 00:05:58;;;;;;;19.63;12.75;;;;;;;18.84;79.12;96516.06;5113541;28;20055;-72
2021/07/19 00:08:26;;;;;;;26.45;12.88;;;;;;;18.80;79.38;96515.22;5112786;28;20047;-72
2021/07/19 00:10:53;;;;;;;21.92;13.05;;;;;;;18.78;79.17;96514.78;5113045;28;20632;-72
2021/07/19 00:13:20;;;;;;;21.52;12.98;;;;;;;18.76;79.14;96517.91;5112414;28;20047;-72
2021/07/19 00:15:46;;;;;;;25.08;13.77;;;;;;;18.73;78.96;96517.84;5113293;28;20043;-72
2021/07/19 00:18:13;;;;;;;24.35;12.73;;;;;;;18.67;78.82;96513.75;5112660;28;20039;-71
2021/07/19 00:20:39;;;;;;;22.85;12.52;;;;;;;18.60;78.95;96516.41;5113238;28;20413;-72
2021/07/19 00:23:06;;;;;;;17.95;11.98;;;;;;;18.57;79.13;96511.59;5111437;28;20047;-71
2021/07/19 00:25:34;;;;;;;20.33;12.00;;;;;;;18.51;79.37;96509.13;5112513;28;20046;-71
2021/07/19 00:28:00;;;;;;;19.40;11.88;;;;;;;18.52;79.30;96510.72;5112549;28;20409;-72
2021/07/19 00:30:27;;;;;;;19.80;11.93;;;;;;;18.52;79.90;96502.47;5112519;28;20046;-72
2021/07/19 00:32:54;;;;;;;20.15;11.95;;;;;;;18.51;80.09;96509.13;5109552;28;20052;-71
2021/07/19 00:35:20;;;;;;;20.35;12.13;;;;;;;18.49;79.84;96510.69;5112154;28;20051;-71
2021/07/19 00:37:47;;;;;;;20.52;11.85;;;;;;;18.51;79.74;96516.63;5112630;28;20042;-71
2021/07/19 00:40:17;;;;;;;17.73;11.75;;;;;;;18.47;79.72;96515.75;5112329;28;20055;-71
2021/07/19 00:42:47;;;;;;;21.30;11.68;;;;;;;18.43;79.87;96507.44;5112928;28;20043;-71
2021/07/19 00:45:16;;;;;;;20.00;12.20;;;;;;;18.40;79.62;96512.88;5112157;28;20113;-71
2021/07/19 00:47:44;;;;;;;19.10;11.50;;;;;;;18.38;79.45;96509.69;5112500;28;20048;-71
2021/07/19 00:50:11;;;;;;;24.15;13.43;;;;;;;18.34;79.99;96509.59;5112110;28;20482;-71
2021/07/19 00:52:39;;;;;;;21.10;12.02;;;;;;;18.34;80.11;96511.56;5112513;28;20508;-71
2021/07/19 00:55:07;;;;;;;20.23;11.65;;;;;;;18.31;80.34;96510.31;5112377;28;20415;-71
2021/07/19 00:57:37;;;;;;;20.95;11.20;;;;;;;18.26;79.83;96511.41;5112616;28;20043;-71
2021/07/19 01:00:07;;;;;;;18.50;11.30;;;;;;;18.25;79.99;96512.59;5112177;28;20528;-71
2021/07/19 01:02:35;;;;;;;22.58;11.98;;;;;;;18.24;80.01;96505.47;5112226;28;20054;-70
2021/07/19 01:05:04;;;;;;;19.58;11.38;;;;;;;18.24;79.93;96512.94;5091945;28;20048;-71
2021/07/19 01:07:33;;;;;;;23.98;12.18;;;;;;;18.24;80.20;96512.94;5091459;28;20040;-71
2021/07/19 01:10:00;;;;;;;16.05;10.23;;;;;;;18.24;78.60;96505.47;5091930;28;20109;-71
2021/07/19 01:12:27;;;;;;;19.00;10.80;;;;;;;18.20;78.46;96506.56;5091353;28;20040;-71
2021/07/19 01:14:53;;;;;;;24.15;11.73;;;;;;;18.11;78.71;96511.50;5097359;28;20051;-71
2021/07/19 01:17:21;;;;;;;17.17;10.80;;;;;;;18.07;79.33;96510.66;5111702;28;20050;-72
2021/07/19 01:19:53;;;;;;;21.30;11.85;;;;;;;18.04;79.44;96503.09;5111941;28;20043;-71
2021/07/19 01:22:44;;;;;;;20.77;11.23;;;;;;;18.00;80.13;96506.56;5111776;28;20047;-71
2021/07/19 01:25:26;;;;;;;19.27;10.85;;;;;;;17.97;80.37;96515.56;5097424;28;20409;-71
2021/07/19 01:28:03;;;;;;;22.67;10.75;;;;;;;17.97;80.27;96507.31;5112070;28;20085;-71
2021/07/19 01:30:33;;;;;;;18.63;11.13;;;;;;;17.95;80.17;96515.13;5111749;28;20042;-71
2021/07/19 01:33:02;;;;;;;18.02;11.43;;;;;;;17.95;80.38;96519.84;5109202;28;20040;-71
2021/07/19 01:35:31;;;;;;;20.05;11.02;;;;;;;17.93;80.57;96511.94;5110986;28;20066;-71
2021/07/19 01:37:59;;;;;;;20.83;11.93;;;;;;;17.94;80.61;96519.03;5111880;28;20071;-71
2021/07/19 01:40:26;;;;;;;21.88;11.75;;;;;;;17.94;81.06;96519.03;5111162;28;20046;-71
2021/07/19 01:42:53;;;;;;;18.27;11.82;;;;;;;17.94;81.26;96510.78;5111813;28;20394;-71
2021/07/19 01:45:20;;;;;;;20.45;11.73;;;;;;;17.95;81.18;96515.13;5111031;28;20047;-72
2021/07/19 01:47:49;;;;;;;20.38;11.00;;;;;;;17.96;81.25;96522.25;5111604;28;20050;-70
2021/07/19 01:50:16;;;;;;;21.15;11.98;;;;;;;17.96;80.83;96521.44;5111100;28;20402;-71
2021/07/19 01:52:44;;;;;;;17.58;10.00;;;;;;;17.96;80.50;96513.97;5111613;28;20043;-73
2021/07/19 01:55:12;;;;;;;18.20;11.30;;;;;;;17.96;80.04;96504.91;5111022;28;20404;-73
2021/07/19 01:57:39;;;;;;;21.00;11.43;;;;;;;17.91;80.46;96503.25;5111295;28;20044;-73
2021/07/19 02:00:07;;;;;;;20.15;11.48;;;;;;;17.90;80.65;96507.13;5110880;28;20044;-73
2021/07/19 02:02:36;;;;;;;21.38;11.15;;;;;;;17.92;80.36;96510.34;5111360;28;20042;-73
2021/07/19 02:05:08;;;;;;;17.83;10.18;;;;;;;17.94;80.10;96501.72;5090752;28;20044;-73
2021/07/19 02:07:37;;;;;;;21.13;10.98;;;;;;;17.89;79.87;96504.75;5091099;28;20040;-73
2021/07/19 02:10:06;;;;;;;19.90;10.60;;;;;;;17.91;80.36;96506.00;5090810;28;20410;-73
2021/07/19 02:12:34;;;;;;;20.85;11.30;;;;;;;17.93;80.61;96511.94;5091326;28;20051;-72
2021/07/19 02:15:01;;;;;;;20.45;11.10;;;;;;;17.89;80.59;96505.53;5097590;28;20044;-72
2021/07/19 02:17:28;;;;;;;18.77;11.63;;;;;;;17.82;80.74;96504.59;5110840;28;20047;-72
2021/07/19 02:19:55;;;;;;;21.23;11.15;;;;;;;17.82;80.88;96505.41;5111470;28;20054;-72
2021/07/19 02:22:23;;;;;;;18.63;10.73;;;;;;;17.85;80.30;96501.13;5110727;28;20056;-72
2021/07/19 02:24:51;;;;;;;19.23;11.40;;;;;;;17.84;80.76;96508.59;5111184;28;20048;-72
2021/07/19 02:27:19;;;;;;;27.23;11.52;;;;;;;17.82;80.86;96508.16;5107179;28;20047;-72
2021/07/19 02:29:46;;;;;;;22.65;10.85;;;;;;;17.85;81.10;96515.69;5111080;28;20044;-72
2021/07/19 02:32:14;;;;;;;20.27;11.30;;;;;;;17.89;80.84;96516.56;5110278;28;20525;-72
2021/07/19 02:34:42;;;;;;;20.23;11.07;;;;;;;17.92;80.89;96520.56;5108513;28;20035;-72
2021/07/19 02:37:09;;;;;;;21.80;11.15;;;;;;;17.89;81.24;96511.06;5110357;28;20059;-72
2021/07/19 02:39:38;;;;;;;23.08;11.50;;;;;;;17.86;81.41;96511.78;5110972;28;20398;-73
2021/07/19 02:42:05;;;;;;;16.80;11.30;;;;;;;17.91;81.36;96514.25;5110502;28;20044;-72
2021/07/19 02:44:32;;;;;;;20.58;11.02;;;;;;;17.93;81.19;96509.19;5111100;28;20043;-72
2021/07/19 02:47:01;;;;;;;18.33;11.27;;;;;;;17.93;80.93;96511.94;5113460;28;20047;-72
2021/07/19 02:49:28;;;;;;;18.73;10.55;;;;;;;17.86;81.15;96506.28;5114855;28;20040;-72
2021/07/19 02:51:54;;;;;;;21.17;11.40;;;;;;;17.84;81.09;96508.59;5115120;28;20055;-72
2021/07/19 02:54:23;;;;;;;20.85;11.85;;;;;;;17.82;81.45;96499.91;5113911;28;20047;-72
2021/07/19 02:56:52;;;;;;;20.45;11.45;;;;;;;17.87;81.35;96507.88;5114868;28;20039;-72
2021/07/19 02:59:20;;;;;;;17.52;11.02;;;;;;;17.89;80.86;96508.31;5114470;28;20065;-72
2021/07/19 03:01:48;;;;;;;16.73;10.90;;;;;;;17.89;80.95;96500.03;5114239;28;20047;-72
2021/07/19 03:04:16;;;;;;;21.25;11.43;;;;;;;17.82;81.13;96501.84;5114371;28;20521;-72
2021/07/19 03:06:44;;;;;;;20.30;11.35;;;;;;;17.75;81.41;96499.75;5114745;28;20043;-72
2021/07/19 03:09:13;;;;;;;19.27;11.20;;;;;;;17.76;81.45;96495.03;5114063;28;20078;-72
2021/07/19 03:11:42;;;;;;;19.45;10.98;;;;;;;17.78;81.69;96499.03;5114437;28;20043;-72
2021/07/19 03:14:16;;;;;;;20.38;11.75;;;;;;;17.79;81.63;96502.56;5114002;28;20100;-72
2021/07/19 03:16:45;;;;;;;19.80;11.57;;;;;;;17.78;81.49;96504.53;5094002;28;20048;-72
2021/07/19 03:19:14;;;;;;;22.10;11.57;;;;;;;17.73;81.35;96497.34;5093646;28;20059;-72
2021/07/19 03:21:43;;;;;;;21.55;10.30;;;;;;;17.66;81.18;96501.88;5094056;28;20093;-72
2021/07/19 03:24:12;;;;;;;18.08;10.68;;;;;;;17.64;81.11;96498.66;5093322;28;20050;-72
2021/07/19 03:26:39;;;;;;;15.80;9.75;;;;;;;17.68;81.48;96499.56;5093851;28;20055;-72
2021/07/19 03:29:08;;;;;;;17.10;9.55;;;;;;;17.71;81.85;96498.84;5093073;28;20047;-73
2021/07/19 03:31:36;;;;;;;14.35;9.00;;;;;;;17.68;81.30;96502.31;5093700;28;20040;-72
2021/07/19 03:34:05;;;;;;;15.73;8.90;;;;;;;17.61;80.93;96499.41;5107686;28;20518;-72
2021/07/19 03:36:33;;;;;;;18.25;9.43;;;;;;;17.55;80.89;96503.59;5114320;28;20070;-72
2021/07/19 03:39:00;;;;;;;14.77;8.95;;;;;;;17.52;81.03;96501.56;5114239;28;20052;-72
2021/07/19 03:41:30;;;;;;;15.40;9.18;;;;;;;17.48;81.15;96507.78;5113155;28;20046;-72
2021/07/19 03:43:58;;;;;;;14.25;9.05;;;;;;;17.52;81.24;96507.84;5114082;28;20379;-72
2021/07/19 03:46:25;;;;;;;20.38;9.77;;;;;;;17.57;81.32;96509.53;5113658;28;20043;-72
2021/07/19 03:48:53;;;;;;;14.63;8.95;;;;;;;17.63;81.40;96503.38;5113804;28;20040;-72
2021/07/19 03:51:20;;;;;;;19.58;9.20;;;;;;;17.70;80.56;96513.78;5113585;28;20386;-72
2021/07/19 03:53:47;;;;;;;14.40;8.98;;;;;;;17.68;80.40;96510.56;5113980;28;20055;-72
2021/07/19 03:56:14;;;;;;;15.77;8.85;;;;;;;17.68;80.64;96516.06;5113400;28;20043;-73
2021/07/19 03:58:40;;;;;;;14.20;9.13;;;;;;;17.72;80.61;96525.22;5113600;28;20618;-72
2021/07/19 04:01:08;;;;;;;13.75;8.93;;;;;;;17.73;80.37;96522.13;5112632;28;20070;-72
2021/07/19 04:03:47;;;;;;;14.82;9.73;;;;;;;17.70;80.58;96517.31;5113530;28;20051;-72
2021/07/19 04:06:17;;;;;;;12.93;8.65;;;;;;;17.73;80.43;96526.84;5112790;28;20048;-73
2021/07/19 04:08:45;;;;;;;12.82;8.60;;;;;;;17.74;80.32;96520.97;5113359;28;20048;-72
2021/07/19 04:11:14;;;;;;;13.75;9.18;;;;;;;17.74;80.60;96522.91;5112839;28;20393;-72
2021/07/19 04:13:41;;;;;;;14.05;9.02;;;;;;;17.69;80.78;96521.22;5113400;28;20056;-72
2021/07/19 04:16:08;;;;;;;12.45;8.60;;;;;;;17.67;80.96;96520.00;5112859;28;20039;-72
2021/07/19 04:18:36;;;;;;;15.75;10.88;;;;;;;17.71;80.99;96520.88;5113479;28;20039;-72
2021/07/19 04:21:03;;;;;;;18.17;11.65;;;;;;;17.73;81.15;96524.09;5112846;28;20054;-72
2021/07/19 04:23:32;;;;;;;16.40;9.63;;;;;;;17.73;81.36;96532.34;5112996;28;20035;-72
2021/07/19 04:25:59;;;;;;;16.48;9.25;;;;;;;17.70;81.05;96527.56;5113146;28;20047;-73
2021/07/19 04:28:26;;;;;;;13.48;8.77;;;;;;;17.68;81.12;96532.59;5112704;28;20056;-72
2021/07/19 04:30:52;;;;;;;14.10;8.95;;;;;;;17.74;81.10;96531.19;5113171;28;20430;-72
2021/07/19 04:33:22;;;;;;;14.27;9.23;;;;;;;17.76;80.17;96523.38;5112416;28;20051;-72
2021/07/19 04:35:49;;;;;;;14.52;9.02;;;;;;;17.73;80.51;96516.63;5112545;28;20055;-72
2021/07/19 04:38:18;;;;;;;21.63;10.77;;;;;;;17.72;80.40;96516.97;5111863;28;20047;-72
2021/07/19 04:40:48;;;;;;;13.13;9.55;;;;;;;17.77;80.24;96519.47;5113035;28;20044;-71
2021/07/19 04:43:16;;;;;;;17.70;10.18;;;;;;;17.77;79.94;96524.97;5112074;28;20048;-72
2021/07/19 04:45:43;;;;;;;13.80;9.25;;;;;;;17.76;80.09;96526.13;5112538;28;20052;-72
2021/07/19 04:48:09;;;;;;;16.88;9.35;;;;;;;17.74;79.79;96522.91;5112182;28;20039;-72
2021/07/19 04:50:36;;;;;;;15.77;9.48;;;;;;;17.76;79.96;96522.59;5112804;28;20043;-72
2021/07/19 04:53:03;;;;;;;18.42;10.50;;;;;;;17.72;80.25;96523.28;5112106;28;20533;-72
2021/07/19 04:55:30;;;;;;;14.30;9.90;;;;;;;17.75;80.39;96527.31;5112568;28;20050;-72
2021/07/19 04:58:00;;;;;;;16.00;9.63;;;;;;;17.79;80.39;96533.66;5112549;28;20398;-72
2021/07/19 05:00:28;;;;;;;17.75;10.80;;;;;;;17.82;80.70;96527.44;5112024;28;20054;-72
2021/07/19 05:02:56;;;;;;;21.17;11.95;;;;;;;17.85;80.05;96526.69;5112248;28;20054;-72
2021/07/19 05:05:26;;;;;;;15.52;10.93;;;;;;;17.84;80.36;96527.06;5112209;28;20044;-72
2021/07/19 05:07:55;;;;;;;19.02;10.60;;;;;;;17.83;80.59;96518.00;5111893;28;20040;-72
2021/07/19 05:10:23;;;;;;;16.83;11.70;;;;;;;17.74;80.86;96525.69;5110968;28;20048;-72
2021/07/19 05:12:52;;;;;;;23.08;12.13;;;;;;;17.71;81.51;96520.88;5111957;28;20031;-72
2021/07/19 05:15:20;;;;;;;21.35;10.55;;;;;;;17.64;82.09;96526.22;5111560;28;20068;-71
2021/07/19 05:17:47;;;;;;;16.73;11.25;;;;;;;17.65;82.38;96522.31;5111915;28;20048;-71
2021/07/19 05:20:16;;;;;;;24.42;12.00;;;;;;;17.71;82.44;96513.41;5111806;28;20044;-71
2021/07/19 05:22:45;;;;;;;19.75;12.05;;;;;;;17.72;82.37;96516.97;5111658;28;20117;-71
2021/07/19 05:25:13;;;;;;;21.48;11.48;;;;;;;17.75;82.68;96516.28;5111607;28;20044;-71
2021/07/19 05:28:02;;;;;;;23.25;11.90;;;;;;;17.83;82.88;96519.97;5111876;28;20044;-71
2021/07/19 05:30:31;;;;;;;21.08;12.07;;;;;;;17.81;83.03;96517.59;5111837;28;20046;-73
2021/07/19 05:32:58;;;;;;;24.88;12.10;;;;;;;17.85;83.27;96517.66;5111634;28;20050;-71
2021/07/19 05:35:24;;;;;;;18.80;11.52;;;;;;;17.91;83.42;96519.78;5111405;28;20043;-71
2021/07/19 05:37:51;;;;;;;21.27;11.90;;;;;;;17.93;82.93;96511.94;5111870;28;20039;-73
2021/07/19 05:40:19;;;;;;;20.10;11.43;;;;;;;18.00;83.29;96517.59;5110995;28;20066;-73
2021/07/19 05:42:46;;;;;;;22.73;13.02;;;;;;;18.08;82.90;96520.50;5108726;28;20044;-73
2021/07/19 05:45:13;;;;;;;20.35;12.68;;;;;;;18.11;82.37;96511.50;5099984;28;20436;-73
2021/07/19 05:47:42;;;;;;;20.15;11.90;;;;;;;18.10;81.69;96515.41;5089553;28;20477;-72
2021/07/19 05:50:10;;;;;;;22.88;12.40;;;;;;;18.16;81.75;96519.47;5107561;28;20058;-72
2021/07/19 05:52:36;;;;;;;20.45;12.85;;;;;;;18.20;81.05;96520.34;5107897;28;20317;-73
2021/07/19 05:55:05;;;;;;;25.10;13.50;;;;;;;18.23;80.54;96516.88;5107347;28;20047;-72
2021/07/19 05:57:32;;;;;;;21.67;11.55;;;;;;;18.28;80.46;96513.81;5108019;28;20058;-73
2021/07/19 05:59:58;;;;;;;19.98;12.63;;;;;;;18.36;80.54;96517.50;5107761;28;20055;-73
2021/07/19 06:02:25;;;;;;;18.10;12.20;;;;;;;18.43;80.53;96512.94;5106828;28;20513;-73
2021/07/19 06:04:53;;;;;;;17.83;11.55;;;;;;;18.51;79.85;96514.66;5107784;28;20509;-73
2021/07/19 06:07:20;;;;;;;17.15;12.00;;;;;;;18.58;79.29;96510.44;5107528;28;20048;-73
2021/07/19 06:09:46;;;;;;;23.30;12.55;;;;;;;18.61;79.44;96509.72;5107741;28;20528;-73
2021/07/19 06:12:13;;;;;;;20.77;12.07;;;;;;;18.67;79.57;96499.97;5107604;28;20043;-73
2021/07/19 06:14:40;;;;;;;21.42;13.27;;;;;;;18.73;79.63;96506.81;5107146;28;20130;-73
2021/07/19 06:17:07;;;;;;;21.08;12.77;;;;;;;18.71;78.37;96509.13;5105283;28;20051;-73
2021/07/19 06:19:33;;;;;;;19.25;11.70;;;;;;;18.75;78.29;96507.25;5106833;28;20570;-73
2021/07/19 06:22:01;;;;;;;21.95;12.25;;;;;;;18.92;79.16;96506.75;5110186;28;20506;-73
2021/07/19 06:24:27;;;;;;;21.33;11.50;;;;;;;19.04;78.87;96511.28;5111590;28;20039;-73
2021/07/19 06:26:54;;;;;;;17.45;11.70;;;;;;;19.10;78.34;96506.25;5111840;28;20499;-73
2021/07/19 06:29:20;;;;;;;19.73;11.48;;;;;;;19.21;79.13;96502.50;5111767;28;20485;-72
2021/07/19 06:31:47;;;;;;;18.98;11.93;;;;;;;19.28;78.25;96501.81;5112071;28;20070;-72
2021/07/19 06:34:15;;;;;;;19.40;11.88;;;;;;;19.36;77.88;96499.94;5111203;28;20043;-73
2021/07/19 06:36:41;;;;;;;20.15;12.40;;;;;;;19.45;78.73;96500.47;5111909;28;20058;-73
2021/07/19 06:39:09;;;;;;;18.63;11.82;;;;;;;19.51;77.39;96505.31;5111442;28;20525;-74
2021/07/19 06:41:36;;;;;;;16.70;11.10;;;;;;;19.56;77.50;96502.22;5111779;28;20039;-73
2021/07/19 06:44:02;;;;;;;16.85;11.18;;;;;;;19.68;77.70;96508.72;5111034;28;20051;-73
2021/07/19 06:46:29;;;;;;;15.35;10.40;;;;;;;19.77;76.61;96512.00;5111921;28;20043;-72
2021/07/19 06:48:55;;;;;;;14.15;10.70;;;;;;;19.81;76.38;96510.91;5111784;28;20521;-73
2021/07/19 06:51:22;;;;;;;16.42;10.32;;;;;;;19.84;76.49;96517.66;5111035;28;20078;-74
2021/07/19 06:53:48;;;;;;;14.23;9.38;;;;;;;19.87;74.61;96511.38;5114440;28;20036;-73
2021/07/19 06:56:16;;;;;;;14.15;9.18;;;;;;;19.97;73.91;96505.19;5114410;28;20044;-73
2021/07/19 06:58:42;;;;;;;13.77;8.80;;;;;;;20.04;74.12;96505.25;5114675;28;20042;-74
2021/07/19 07:01:09;;;;;;;12.93;8.57;;;;;;;20.11;74.21;96499.03;5114370;28;20047;-73
2021/07/19 07:03:35;;;;;;;13.40;8.75;;;;;;;20.11;71.99;96506.53;5114222;28;20035;-73
2021/07/19 07:06:03;;;;;;;14.23;8.73;;;;;;;20.14;71.98;96494.72;5114340;28;20044;-73
2021/07/19 07:08:29;;;;;;;12.45;8.27;;;;;;;20.24;72.38;96503.13;5114669;28;20044;-73
2021/07/19 07:10:58;;;;;;;17.42;8.40;;;;;;;20.41;73.06;96501.78;5114612;28;20051;-74
2021/07/19 07:13:26;;;;;;;15.75;8.73;;;;;;;20.46;72.50;96503.38;5114208;28;20499;-73
2021/07/19 07:15:52;;;;;;;15.85;7.95;;;;;;;20.57;73.80;96502.38;5114594;28;20043;-73
2021/07/19 07:18:19;;;;;;;20.70;9.00;;;;;;;20.68;73.58;96496.94;5114055;28;20040;-74
2021/07/19 07:20:45;;;;;;;14.30;7.15;;;;;;;20.75;71.50;96498.97;5114163;28;20494;-73
2021/07/19 07:23:12;;;;;;;13.40;7.75;;;;;;;20.82;70.93;96496.28;5113988;28;20044;-73
2021/07/19 07:25:38;;;;;;;12.50;6.70;;;;;;;20.88;70.10;96497.53;5114210;28;20044;-74
2021/07/19 07:28:05;;;;;;;9.15;6.65;;;;;;;21.01;70.39;96501.59;5113733;28;20055;-73
2021/07/19 07:30:33;;;;;;;14.13;7.22;;;;;;;21.09;68.79;96492.19;5114464;28;20048;-73
2021/07/19 07:33:00;;;;;;;8.68;5.90;;;;;;;21.22;68.88;96489.91;5113617;28;20055;-73
2021/07/19 07:35:27;;;;;;;11.20;7.47;;;;;;;21.32;69.80;96499.50;5113828;28;20528;-73
2021/07/19 07:37:53;;;;;;;15.07;6.75;;;;;;;21.35;69.34;96493.16;5114208;28;20051;-74
2021/07/19 07:40:20;;;;;;;15.43;6.07;;;;;;;21.44;69.62;96496.41;5113686;28;20074;-73
2021/07/19 07:42:46;;;;;;;14.38;4.75;;;;;;;21.48;66.44;96496.44;5113806;28;20405;-73
2021/07/19 07:45:13;;;;;;;9.05;4.95;;;;;;;21.56;64.65;96496.13;5112358;28;20043;-73
2021/07/19 07:47:42;;;;;;;6.20;4.55;;;;;;;21.69;64.70;96501.31;5113951;28;20047;-73
2021/07/19 07:50:10;;;;;;;7.30;5.35;;;;;;;21.77;66.80;96497.41;5113349;28;20713;-73
2021/07/19 07:52:37;;;;;;;9.25;5.72;;;;;;;21.84;67.71;96492.72;5113485;28;20043;-73
2021/07/19 07:55:05;;;;;;;5.88;4.63;;;;;;;21.95;66.88;96498.31;5113524;28;20048;-74
2021/07/19 07:57:31;;;;;;;10.93;4.18;;;;;;;21.99;63.35;96503.88;5113617;28;20051;-74
2021/07/19 07:59:58;;;;;;;8.63;4.00;;;;;;;22.02;61.59;96501.09;5113879;28;20044;-74
2021/07/19 08:02:24;;;;;;;6.75;4.43;;;;;;;22.10;63.19;96494.44;5113102;28;20042;-74
2021/07/19 08:04:52;;;;;;;8.18;4.28;;;;;;;22.27;62.52;96497.69;5113778;28;20039;-74
2021/07/19 08:07:19;;;;;;;5.78;4.13;;;;;;;22.38;63.12;96492.94;5112991;28;20517;-72
2021/07/19 08:09:45;;;;;;;8.48;4.50;;;;;;;22.59;63.16;96498.56;5113595;28;20513;-74
2021/07/19 08:12:12;;;;;;;9.15;4.82;;;;;;;22.71;61.37;96496.59;5113019;28;20052;-73
2021/07/19 08:14:38;;;;;;;11.43;4.72;;;;;;;22.78;60.79;96493.84;5113235;28;20040;-73
2021/07/19 08:17:05;;;;;;;12.38;5.53;;;;;;;22.91;61.04;96492.28;5113232;28;20134;-73
2021/07/19 08:19:33;;;;;;;9.38;4.60;;;;;;;23.78;57.51;96489.09;5113624;28;20047;-74
2021/07/19 08:22:01;;;;;;;9.50;5.18;;;;;;;25.01;55.45;96488.13;5113269;28;20051;-74
2021/07/19 08:24:28;;;;;;;7.35;4.32;;;;;;;25.06;51.76;96487.75;5112997;28;20066;-74
2021/07/19 08:26:54;;;;;;;9.48;4.53;;;;;;;25.30;52.06;96482.34;5113162;28;20535;-74
2021/07/19 08:29:21;;;;;;;6.68;4.50;;;;;;;26.23;50.07;96483.00;5112803;28;20046;-73
2021/07/19 08:31:47;;;;;;;9.00;4.43;;;;;;;27.27;48.57;96478.78;5113030;28;20490;-73
2021/07/19 08:34:14;;;;;;;6.28;4.22;;;;;;;28.18;48.76;96474.72;5112373;28;20395;-74
2021/07/19 08:36:40;;;;;;;9.18;4.63;;;;;;;28.95;44.68;96476.31;5113003;28;20047;-74
2021/07/19 08:39:08;;;;;;;7.10;3.90;;;;;;;29.02;48.43;96469.75;5112370;28;20044;-74
2021/07/19 08:41:36;;;;;;;10.73;5.95;;;;;;;29.12;47.53;96465.91;5109716;27;20047;-74
2021/07/19 08:44:05;;;;;;;21.90;6.07;;;;;;;28.53;47.43;96470.41;5098135;28;20041;-74
2021/07/19 08:46:32;;;;;;;13.98;6.13;;;;;;;27.64;47.47;96480.53;5108836;28;20044;-74
2021/07/19 08:48:58;;;;;;;8.98;4.03;;;;;;;27.28;48.65;96472.75;5109327;28;20043;-74
2021/07/19 08:51:25;;;;;;;7.07;4.97;;;;;;;26.71;48.77;96473.59;5107470;28;20054;-74
2021/07/19 08:53:53;;;;;;;15.13;5.63;;;;;;;26.25;51.00;96474.19;5089406;28;20081;-76
2021/07/19 08:56:21;;;;;;;8.15;4.60;;;;;;;26.04;50.90;96466.88;5088530;28;20101;-76
2021/07/19 08:58:49;;;;;;;8.50;4.30;;;;;;;26.05;52.54;96479.66;5089047;28;20036;-76
2021/07/19 09:01:16;;;;;;;7.57;4.43;;;;;;;27.06;51.02;96479.88;5088355;28;20071;-76
2021/07/19 09:03:42;;;;;;;6.68;4.10;;;;;;;27.78;47.73;96477.50;5100418;28;20059;-76
2021/07/19 09:06:11;;;;;;;10.48;4.40;;;;;;;28.83;44.29;96479.78;5108048;28;20054;-76
2021/07/19 09:08:46;;;;;;;6.82;4.00;;;;;;;28.47;44.53;96471.38;5109062;28;20051;-75
2021/07/19 09:11:12;;;;;;;10.40;4.82;;;;;;;28.25;45.05;96466.19;5108478;28;20048;-77
2021/07/19 09:13:55;;;;;;;9.70;3.70;;;;;;;29.14;44.03;96471.09;5109267;28;20044;-77
2021/07/19 09:16:22;;;;;;;8.93;4.10;;;;;;;29.80;41.52;96467.00;5108169;28;20051;-76
2021/07/19 09:19:02;;;;;;;8.05;3.70;;;;;;;30.38;40.16;96467.81;5108915;28;20035;-75
2021/07/19 09:21:30;;;;;;;9.35;3.40;;;;;;;31.07;37.45;96466.53;5108511;28;20497;-76
2021/07/19 09:24:02;;;;;;;13.43;3.80;;;;;;;31.29;38.02;96461.03;5108609;28;20071;-76
2021/07/19 09:26:31;;;;;;;4.72;3.00;;;;;;;31.66;38.78;96465.00;5108004;28;20044;-76
2021/07/19 09:28:59;;;;;;;5.72;4.03;;;;;;;32.04;35.34;96464.88;5108637;28;20071;-76
2021/07/19 09:31:33;;;;;;;10.88;4.00;;;;;;;32.37;33.84;96459.69;5108496;28;20051;-76
2021/07/19 09:34:01;;;;;;;7.18;3.65;;;;;;;32.55;35.11;96446.94;5108284;28;20053;-76
2021/07/19 09:36:31;;;;;;;14.43;4.38;;;;;;;32.38;32.63;96458.44;5107879;28;20051;-77
2021/07/19 09:39:06;;;;;;;11.25;4.18;;;;;;;31.79;35.61;96454.47;5108342;28;20058;-75
2021/07/19 09:41:33;;;;;;;12.45;4.47;;;;;;;31.72;37.14;96449.09;5108516;28;20044;-76
2021/07/19 09:44:00;;;;;;;8.10;3.72;;;;;;;31.25;36.37;96443.44;5108211;28;20055;-76
2021/07/19 09:46:33;;;;;;;8.82;3.80;;;;;;;31.04;37.17;96442.13;5107772;28;20053;-76
2021/07/19 09:49:00;;;;;;;12.50;4.80;;;;;;;30.63;38.57;96441.75;5108459;28;20047;-75
2021/07/19 09:51:30;;;;;;;6.95;3.50;;;;;;;30.19;39.25;96435.06;5107790;28;20067;-76
2021/07/19 09:54:08;;;;;;;10.35;4.38;;;;;;;29.63;45.20;96433.34;5108643;28;20047;-75
2021/07/19 09:56:35;;;;;;;9.00;3.65;;;;;;;29.26;41.29;96433.91;5107423;28;20028;-76
2021/07/19 09:59:07;;;;;;;8.25;3.90;;;;;;;28.66;43.57;96434.13;5108372;28;20047;-76
2021/07/19 10:01:35;;;;;;;5.38;3.50;;;;;;;28.10;44.10;96431.31;5110900;28;20040;-78
2021/07/19 10:04:09;;;;;;;7.78;3.88;;;;;;;27.61;44.95;96438.63;5111243;28;20085;-77
2021/07/19 10:06:37;;;;;;;8.20;3.92;;;;;;;27.18;47.36;96434.59;5111377;28;20039;-77
2021/07/19 10:09:07;;;;;;;8.13;4.03;;;;;;;27.05;46.95;96430.81;5111056;28;20050;-76
2021/07/19 10:11:37;;;;;;;7.20;3.60;;;;;;;27.15;49.10;96432.66;5110875;28;20047;-76
2021/07/19 10:14:06;;;;;;;8.50;3.55;;;;;;;27.26;44.03;96427.66;5110995;28;20044;-76
2021/07/19 10:16:34;;;;;;;9.43;3.63;;;;;;;27.18;44.14;96431.78;5111237;28;20051;-76
2021/07/19 10:19:01;;;;;;;8.50;3.35;;;;;;;27.29;44.08;96437.97;5111319;28;20491;-78
2021/07/19 10:21:30;;;;;;;8.60;3.30;;;;;;;27.37;40.97;96437.88;5110418;28;20044;-76
2021/07/19 10:23:59;;;;;;;8.77;3.53;;;;;;;27.07;43.00;96431.19;5111254;28;20092;-76
2021/07/19 10:26:26;;;;;;;9.90;3.30;;;;;;;26.78;43.84;96422.44;5110621;28;20405;-75
2021/07/19 10:28:53;;;;;;;11.35;3.80;;;;;;;26.48;44.63;96428.88;5111358;28;20463;-77
2021/07/19 10:31:21;;;;;;;10.88;3.55;;;;;;;26.27;48.44;96425.13;5110793;28;20524;-76
2021/07/19 10:33:49;;;;;;;11.65;3.85;;;;;;;26.27;48.97;96419.56;5111078;28;20050;-76
2021/07/19 10:36:22;;;;;;;8.35;3.70;;;;;;;26.29;43.64;96416.34;5110607;28;20048;-76
2021/07/19 10:38:49;;;;;;;9.02;3.85;;;;;;;26.22;48.39;96416.44;5111281;28;20048;-76
2021/07/19 10:41:16;;;;;;;10.13;3.45;;;;;;;26.20;45.08;96424.44;5110770;28;20071;-75
2021/07/19 10:43:42;;;;;;;8.25;3.10;;;;;;;26.22;45.03;96417.22;5111102;28;20078;-75
2021/07/19 10:46:11;;;;;;;9.32;3.95;;;;;;;26.42;48.21;96413.81;5110228;28;20048;-75
2021/07/19 10:48:41;;;;;;;9.43;3.28;;;;;;;26.60;45.98;96419.13;5111037;28;20036;-76
2021/07/19 10:51:16;;;;;;;8.50;3.55;;;;;;;26.58;47.04;96411.19;5110484;28;20051;-76
2021/07/19 10:53:42;;;;;;;6.57;3.30;;;;;;;26.46;48.42;96414.53;5111150;28;20050;-75
2021/07/19 10:56:11;;;;;;;7.90;3.35;;;;;;;26.38;51.61;96407.44;5110463;28;20416;-75
2021/07/19 10:58:40;;;;;;;8.85;3.47;;;;;;;26.35;47.85;96397.13;5110974;28;20044;-77
2021/07/19 11:01:07;;;;;;;9.30;3.50;;;;;;;26.26;49.32;96401.22;5110246;28;20410;-75
2021/07/19 11:03:40;;;;;;;8.75;3.60;;;;;;;26.43;45.92;96404.22;5108004;28;20039;-75
2021/07/19 11:06:06;;;;;;;9.60;3.67;;;;;;;26.58;45.85;96405.59;5110340;28;20127;-77
2021/07/19 11:08:33;;;;;;;11.10;3.22;;;;;;;26.72;45.32;96398.97;5114122;28;20125;-76
2021/07/19 11:11:00;;;;;;;7.35;3.33;;;;;;;26.94;45.69;96396.66;5114815;28;20050;-75
2021/07/19 11:13:29;;;;;;;7.47;3.30;;;;;;;27.09;47.00;96395.19;5114331;28;20049;-76
2021/07/19 11:15:56;;;;;;;7.85;3.53;;;;;;;27.22;46.58;96398.97;5114398;28;20044;-77
2021/07/19 11:18:26;;;;;;;7.07;3.17;;;;;;;27.43;43.32;96397.03;5114001;28;20052;-76
2021/07/19 11:20:55;;;;;;;12.18;4.13;;;;;;;27.60;43.52;96390.28;5114383;28;20044;-78
2021/07/19 11:23:27;;;;;;;8.68;3.38;;;;;;;27.57;46.71;96379.97;5113830;28;20086;-79
2021/07/19 11:25:54;;;;;;;6.00;3.67;;;;;;;27.45;44.51;96377.78;5114579;28;20043;-76
2021/07/19 11:28:23;;;;;;;10.10;3.50;;;;;;;27.15;44.99;96387.94;5113858;28;20046;-76